Time;durP1;ratioP1;P1;durP2;ratioP2;P2;SDS_P1;SDS_P2;PMS_P1;PMS_P2;Temp;Humidity;BMP_temperature;BMP_pressure;BME280_temperature;BME280_humidity;BME280_pressure;Samples;Min_cycle;Max_cycle;Signal;HPM_P1;HPM_P2
2023/10/17 00:01:13;;;;;;;4.13;3.83;;;;;;;-2.21;100.00;96104.19;7425783;19;20373;-89
2023/10/17 00:03:40;;;;;;;5.43;3.23;;;;;;;-2.97;100.00;95954.41;7424875;19;20368;-89
2023/10/17 00:06:08;;;;;;;4.63;2.73;;;;;;;-1.79;100.00;96123.03;7405030;19;20380;-89
2023/10/17 00:08:35;;;;;;;2.93;2.67;;;;;;;-1.07;100.00;96227.00;7400740;19;20525;-88
2023/10/17 00:11:17;;;;;;;3.70;3.40;;;;;;;-1.32;100.00;96205.16;7403462;19;20887;-89
2023/10/17 00:13:59;;;;;;;4.27;3.83;;;;;;;-2.59;100.00;96025.00;7399239;19;20388;-89
2023/10/17 00:16:29;;;;;;;4.97;4.13;;;;;;;-1.34;100.00;96209.78;7397729;19;20467;-88
2023/10/17 00:19:05;;;;;;;3.70;3.40;;;;;;;-1.07;100.00;96238.19;7397858;19;20432;-88
2023/10/17 00:21:33;;;;;;;4.17;3.77;;;;;;;-1.14;100.00;96268.75;7399001;19;20372;-88
2023/10/17 00:24:02;;;;;;;5.87;5.27;;;;;;;-1.10;100.00;96263.84;7398634;19;20729;-89
2023/10/17 00:26:30;;;;;;;9.40;7.47;;;;;;;-1.85;100.00;96155.16;7406919;19;20403;-90
2023/10/17 00:28:58;;;;;;;7.80;6.17;;;;;;;-1.61;100.00;96207.34;7417035;19;20416;-90
2023/10/17 00:31:24;;;;;;;11.40;6.50;;;;;;;-1.20;100.00;96225.69;7401752;19;20753;-89
2023/10/17 00:33:59;;;;;;;8.80;7.87;;;;;;;-1.24;100.00;96222.81;7399533;19;20365;-89
2023/10/17 00:36:27;;;;;;;6.97;5.37;;;;;;;-1.81;100.00;96142.47;7402851;19;20399;-88
2023/10/17 00:39:16;;;;;;;6.87;5.60;;;;;;;-1.81;100.00;96130.28;7399008;19;20949;-89
2023/10/17 00:41:50;;;;;;;6.73;5.10;;;;;;;-1.14;100.00;96229.06;7399083;19;20398;-89
2023/10/17 00:44:29;;;;;;;6.53;4.80;;;;;;;-1.97;100.00;96151.19;7398821;19;20400;-89
2023/10/17 00:47:01;;;;;;;4.80;4.27;;;;;;;-1.86;100.00;96160.59;7398685;19;20920;-89
2023/10/17 00:49:33;;;;;;;4.53;3.80;;;;;;;-2.09;100.00;96148.78;7397430;19;20393;-89
2023/10/17 00:52:15;;;;;;;6.33;3.47;;;;;;;-1.63;100.00;96185.28;7399054;19;20400;-88
2023/10/17 00:54:43;;;;;;;4.20;3.40;;;;;;;-2.76;100.00;96012.22;7405001;19;20391;-89
2023/10/17 00:57:15;;;;;;;4.43;4.03;;;;;;;-3.46;100.00;95905.50;7397462;19;20404;-88
2023/10/17 00:59:52;;;;;;;3.50;3.20;;;;;;;-1.86;100.00;96148.41;7396618;19;20949;-88
2023/10/17 01:02:22;;;;;;;3.80;3.50;;;;;;;-1.61;100.00;96198.78;7396828;19;20449;-89
2023/10/17 01:04:51;;;;;;;3.70;3.20;;;;;;;-2.75;100.00;96018.97;7395394;19;20388;-88
2023/10/17 01:07:29;;;;;;;4.37;3.40;;;;;;;-1.65;100.00;96200.31;7396171;19;20380;-89
2023/10/17 01:10:13;;;;;;;3.30;3.00;;;;;;;-1.79;100.00;96177.44;7395359;19;20761;-89
2023/10/17 01:15:38;;;;;;;6.17;4.00;;;;;;;-1.22;100.00;96238.13;7396300;19;20384;-88
2023/10/17 01:18:05;;;;;;;4.50;3.60;;;;;;;-1.32;100.00;96209.56;7395647;19;20932;-88
2023/10/17 01:20:34;;;;;;;7.33;4.00;;;;;;;-2.97;100.00;95942.25;7395790;19;20392;-87
2023/10/17 01:23:02;;;;;;;4.83;4.10;;;;;;;-2.48;100.00;96044.75;7396980;19;20384;-87
2023/10/17 01:25:29;;;;;;;4.47;3.77;;;;;;;-2.30;100.00;96051.31;7402384;19;20412;-92
2023/10/17 01:27:58;;;;;;;3.60;3.30;;;;;;;-2.65;100.00;96010.50;7426412;19;20400;-93
2023/10/17 01:30:32;;;;;;;3.67;3.40;;;;;;;-1.64;100.00;96175.97;7410712;19;20488;-88
2023/10/17 01:33:01;;;;;;;4.10;3.70;;;;;;;-1.65;100.00;96189.94;7395046;19;20439;-87
2023/10/17 01:35:29;;;;;;;3.83;3.30;;;;;;;-2.43;100.00;96122.41;7393709;19;20352;-88
2023/10/17 01:37:56;;;;;;;7.50;4.73;;;;;;;-2.99;100.00;96027.06;7394048;19;20424;-87
2023/10/17 01:40:25;;;;;;;3.20;2.90;;;;;;;-2.60;100.00;96050.09;7394733;19;20372;-88
2023/10/17 01:42:53;;;;;;;4.00;3.60;;;;;;;-1.51;100.00;96224.75;7395000;19;20437;-88
2023/10/17 01:45:22;;;;;;;3.53;3.00;;;;;;;-1.63;100.00;96224.94;7394122;19;20377;-87
2023/10/17 01:47:53;;;;;;;3.70;3.30;;;;;;;-2.46;100.00;96084.09;7395265;19;20368;-88
2023/10/17 01:50:21;;;;;;;3.10;2.87;;;;;;;-1.88;100.00;96171.16;7393912;19;20782;-87
2023/10/17 01:52:49;;;;;;;3.70;3.40;;;;;;;-1.49;100.00;96223.47;7394149;19;20401;-87
2023/10/17 01:55:16;;;;;;;3.97;3.00;;;;;;;-1.69;100.00;96196.69;7393232;19;20436;-88
2023/10/17 01:57:44;;;;;;;3.80;3.13;;;;;;;-2.00;100.00;96162.84;7393845;19;20918;-88
2023/10/17 02:00:37;;;;;;;3.80;3.37;;;;;;;-1.75;100.00;96201.03;7396717;19;20926;-88
2023/10/17 02:03:12;;;;;;;3.23;3.00;;;;;;;-1.57;100.00;96212.81;7397153;19;20432;-88
2023/10/17 02:05:40;;;;;;;4.27;3.70;;;;;;;-2.00;100.00;96152.47;7394433;19;20372;-88
2023/10/17 02:08:08;;;;;;;4.17;3.60;;;;;;;-2.02;100.00;96145.97;7393087;19;20412;-87
2023/10/17 02:10:36;;;;;;;4.40;4.00;;;;;;;-1.62;100.00;96192.03;7394079;19;20365;-87
2023/10/17 02:13:04;;;;;;;7.90;4.90;;;;;;;-4.10;100.00;95814.38;7394566;19;20405;-87
2023/10/17 02:15:32;;;;;;;7.37;5.67;;;;;;;-4.09;100.00;95829.59;7395829;19;20385;-88
2023/10/17 02:18:06;;;;;;;8.43;6.03;;;;;;;-2.26;100.00;96111.91;7394977;19;20408;-88
2023/10/17 02:20:34;;;;;;;4.50;4.10;;;;;;;-2.91;100.00;96014.72;7394030;19;20985;-89
2023/10/17 02:23:08;;;;;;;7.90;5.17;;;;;;;-3.05;100.00;95989.28;7394140;19;21041;-88
2023/10/17 02:25:37;;;;;;;5.90;5.00;;;;;;;-2.04;100.00;96135.09;7395128;19;20398;-89
2023/10/17 02:28:05;;;;;;;5.77;5.10;;;;;;;-3.17;100.00;95962.84;7394389;19;20404;-88
2023/10/17 02:30:32;;;;;;;10.40;5.10;;;;;;;-4.15;100.00;95817.66;7394193;19;20468;-88
2023/10/17 02:33:10;;;;;;;7.83;4.70;;;;;;;-1.51;100.00;96201.44;7394482;19;20392;-88
2023/10/17 02:35:41;;;;;;;5.40;4.00;;;;;;;-1.74;100.00;96165.53;7393159;19;20393;-89
2023/10/17 02:38:08;;;;;;;4.43;4.03;;;;;;;-2.84;100.00;96010.88;7394094;19;20420;-88
2023/10/17 02:40:40;;;;;;;5.37;4.50;;;;;;;-2.22;100.00;96112.97;7393905;19;20380;-89
2023/10/17 02:43:16;;;;;;;5.90;3.43;;;;;;;-2.11;100.00;96124.97;7394904;19;20361;-88
2023/10/17 02:45:43;;;;;;;6.57;4.80;;;;;;;-2.21;100.00;96127.47;7393924;19;20395;-88
2023/10/17 02:48:23;;;;;;;3.77;3.30;;;;;;;-2.05;100.00;96147.25;7395038;19;20422;-89
2023/10/17 02:51:00;;;;;;;4.20;3.00;;;;;;;-1.74;100.00;96181.88;7396743;19;20373;-88
2023/10/17 02:53:34;;;;;;;3.20;2.90;;;;;;;-1.78;100.00;96186.00;7394517;19;20396;-88
2023/10/17 02:56:18;;;;;;;2.57;2.37;;;;;;;-1.69;100.00;96173.34;7395514;19;20357;-88
2023/10/17 02:58:59;;;;;;;4.23;3.53;;;;;;;-2.28;100.00;96095.84;7400646;19;20448;-88
2023/10/17 03:01:27;;;;;;;3.20;2.90;;;;;;;-2.06;100.00;96130.16;7401423;19;20396;-87
2023/10/17 03:03:54;;;;;;;5.20;3.10;;;;;;;-1.70;100.00;96176.97;7400789;19;20478;-88
2023/10/17 03:06:21;;;;;;;2.60;2.40;;;;;;;-1.58;100.00;96186.13;7401581;19;20377;-88
2023/10/17 03:08:51;;;;;;;2.73;2.53;;;;;;;-1.80;100.00;96137.03;7399760;19;20416;-89
2023/10/17 03:11:35;;;;;;;3.93;2.93;;;;;;;-2.70;100.00;96013.81;7401468;19;20372;-88
2023/10/17 03:14:12;;;;;;;6.37;3.07;;;;;;;-1.53;100.00;96185.34;7399282;19;21068;-88
2023/10/17 03:16:41;;;;;;;4.77;4.37;;;;;;;-1.63;100.00;96188.66;7399822;19;20373;-88
2023/10/17 03:19:11;;;;;;;4.10;3.70;;;;;;;-1.96;100.00;96153.53;7397375;19;20422;-88
2023/10/17 03:21:43;;;;;;;4.63;4.10;;;;;;;-1.57;100.00;96190.28;7401758;19;20401;-88
2023/10/17 03:24:12;;;;;;;2.43;2.23;;;;;;;-1.58;100.00;96186.13;7399341;19;20812;-89
2023/10/17 03:26:40;;;;;;;3.40;2.80;;;;;;;-1.99;100.00;96122.19;7400180;19;20385;-88
2023/10/17 03:29:14;;;;;;;2.60;2.40;;;;;;;-3.16;100.00;95963.59;7398366;19;20404;-88
2023/10/17 03:31:48;;;;;;;2.83;2.63;;;;;;;-3.31;100.00;95946.97;7404918;19;20348;-88
2023/10/17 03:34:29;;;;;;;3.10;2.80;;;;;;;-1.98;100.00;96162.59;7403343;19;20761;-88
2023/10/17 03:37:01;;;;;;;2.63;2.43;;;;;;;-1.88;100.00;96191.13;7403014;19;20384;-88
2023/10/17 03:39:28;;;;;;;4.03;3.63;;;;;;;-2.58;100.00;96084.25;7401348;19;20404;-88
2023/10/17 03:42:04;;;;;;;3.30;2.87;;;;;;;-2.52;100.00;96096.22;7402334;19;20986;-89
2023/10/17 03:44:31;;;;;;;3.20;2.93;;;;;;;-3.85;100.00;95886.09;7404986;19;20381;-88
2023/10/17 03:47:04;;;;;;;2.57;2.30;;;;;;;-3.35;100.00;95968.34;7403103;19;20413;-87
2023/10/17 03:49:37;;;;;;;2.67;2.47;;;;;;;-2.16;100.00;96156.75;7398223;19;20416;-88
2023/10/17 03:52:06;;;;;;;3.53;2.50;;;;;;;-2.77;100.00;96062.41;7400112;19;20742;-88
2023/10/17 03:54:38;;;;;;;3.87;3.57;;;;;;;-3.08;100.00;96036.28;7398355;19;20399;-89
2023/10/17 03:57:14;;;;;;;3.43;3.13;;;;;;;-3.44;100.00;95993.88;7399562;19;20377;-88
2023/10/17 03:59:52;;;;;;;3.00;2.80;;;;;;;-4.01;100.00;95890.31;7397516;19;20400;-88
2023/10/17 04:02:20;;;;;;;4.17;3.30;;;;;;;-3.79;100.00;95934.94;7399016;19;20385;-88
2023/10/17 04:04:56;;;;;;;3.80;3.50;;;;;;;-2.19;100.00;96190.16;7397558;19;21233;-88
2023/10/17 04:07:27;;;;;;;3.40;3.00;;;;;;;-3.80;100.00;95935.19;7397308;19;20802;-88
2023/10/17 04:12:38;;;;;;;4.10;3.80;;;;;;;-3.59;100.00;96009.25;7396985;19;20385;-87
2023/10/17 04:15:09;;;;;;;4.60;2.73;;;;;;;-3.40;100.00;96025.94;7397089;19;20985;-87
2023/10/17 04:17:36;;;;;;;5.33;3.93;;;;;;;-3.51;100.00;96000.28;7396860;19;20416;-88
2023/10/17 04:20:16;;;;;;;5.03;4.13;;;;;;;-2.63;100.00;96133.41;7397733;19;20360;-88
2023/10/17 04:22:43;;;;;;;5.03;4.57;;;;;;;-2.63;100.00;96135.97;7397688;19;20384;-88
2023/10/17 04:25:31;;;;;;;9.80;7.07;;;;;;;-3.42;100.00;96016.91;7398261;19;20393;-87
2023/10/17 04:28:01;;;;;;;17.77;5.73;;;;;;;-2.62;100.00;96126.41;7405688;19;20414;-91
2023/10/17 04:30:50;;;;;;;7.03;4.90;;;;;;;-3.19;100.00;96034.69;7426294;19;20368;-88
2023/10/17 04:33:19;;;;;;;9.70;4.90;;;;;;;-3.07;100.00;96068.91;7427721;19;20380;-88
2023/10/17 04:35:47;;;;;;;6.47;5.30;;;;;;;-2.95;100.00;96094.56;7421411;19;20401;-88
2023/10/17 04:38:26;;;;;;;5.80;4.80;;;;;;;-3.06;100.00;96070.47;7402845;19;20389;-87
2023/10/17 04:42:05;;;;;;;5.90;5.37;;;;;;;-2.51;100.00;96166.88;7397874;19;20384;-87
2023/10/17 04:43:49;;;;;;;5.63;4.67;;;;;;;-3.36;100.00;96027.00;7397807;19;20397;-88
2023/10/17 04:46:25;;;;;;;5.03;4.33;;;;;;;-3.28;100.00;96024.00;7397563;19;20753;-87
2023/10/17 04:48:55;;;;;;;5.07;4.60;;;;;;;-3.21;100.00;96039.28;7395911;19;20395;-88
2023/10/17 04:51:26;;;;;;;4.17;3.47;;;;;;;-3.45;100.00;95994.13;7397099;19;20356;-88
2023/10/17 04:53:55;;;;;;;5.50;5.00;;;;;;;-2.35;100.00;96170.34;7398304;19;20384;-87
2023/10/17 04:56:23;;;;;;;8.80;3.80;;;;;;;-3.87;100.00;95972.31;7396204;19;20376;-88
2023/10/17 05:04:17;;;;;;;4.73;3.43;;;;;;;-2.31;100.00;96186.94;7403232;19;20368;-88
2023/10/17 06:16:51;;;;;;;9.93;8.97;;;;;;;-2.73;100.00;96123.75;7394223;19;20397;-90
2023/10/17 06:19:24;;;;;;;9.47;6.93;;;;;;;-2.35;100.00;96191.06;7392125;19;20765;-89
2023/10/17 06:30:35;;;;;;;8.57;7.77;;;;;;;-3.04;100.00;96062.47;7392793;19;20468;-89
2023/10/17 06:33:17;;;;;;;9.07;8.10;;;;;;;-2.35;100.00;96153.00;7401184;19;20409;-90
2023/10/17 06:35:55;;;;;;;6.80;5.80;;;;;;;-1.69;100.00;96253.69;7398610;19;20423;-90
2023/10/17 06:38:27;;;;;;;7.97;7.17;;;;;;;-3.21;100.00;96000.50;7399789;19;20384;-90
2023/10/17 06:41:11;;;;;;;8.33;7.50;;;;;;;-2.82;100.00;96059.75;7400088;19;20377;-90
2023/10/17 06:43:46;;;;;;;6.43;5.03;;;;;;;-3.84;100.00;95905.72;7400290;19;20787;-89
2023/10/17 06:46:14;;;;;;;6.03;5.53;;;;;;;-1.98;100.00;96201.44;7399561;19;20380;-90
2023/10/17 06:48:49;;;;;;;6.50;5.27;;;;;;;-2.45;100.00;96140.78;7398181;19;20435;-90
2023/10/17 06:53:48;;;;;;;6.40;5.73;;;;;;;-3.29;100.00;95991.44;7400077;19;20376;-90
2023/10/17 06:56:18;;;;;;;7.20;5.70;;;;;;;-2.68;100.00;96064.25;7400372;19;20460;-90
2023/10/17 06:58:47;;;;;;;13.23;6.57;;;;;;;-2.19;100.00;96130.59;7398452;19;20945;-89
2023/10/17 07:01:25;;;;;;;9.13;6.67;;;;;;;-1.64;100.00;96200.06;7398606;19;20385;-89
2023/10/17 07:03:55;;;;;;;7.40;6.80;;;;;;;-2.57;100.00;96056.59;7398377;19;20413;-89
2023/10/17 07:06:26;;;;;;;5.40;4.90;;;;;;;-2.70;100.00;96037.09;7399047;19;20394;-90
2023/10/17 07:08:53;;;;;;;11.87;10.87;;;;;;;-2.62;100.00;96090.19;7396773;19;20415;-90
2023/10/17 07:13:49;;;;;;;7.20;6.10;;;;;;;-3.34;100.00;95996.56;7400008;19;20395;-89
2023/10/17 07:16:41;;;;;;;9.77;8.07;;;;;;;-2.20;100.00;96139.38;7397183;19;20384;-90
2023/10/17 07:22:05;;;;;;;16.90;10.47;;;;;;;-1.56;100.00;96235.09;7398953;19;20387;-90
2023/10/17 07:24:35;;;;;;;13.73;10.50;;;;;;;-1.30;100.00;96239.38;7398890;19;20401;-89
2023/10/17 07:27:19;;;;;;;14.63;11.07;;;;;;;-2.43;100.00;96052.53;7398271;19;20384;-90
2023/10/17 07:30:27;;;;;;;15.03;12.23;;;;;;;-2.83;100.00;95934.06;7397813;19;20419;-90
2023/10/17 07:32:46;;;;;;;11.60;9.70;;;;;;;-1.14;100.00;96187.56;7398264;19;20393;-90
2023/10/17 07:35:23;;;;;;;9.70;8.70;;;;;;;-1.93;100.00;96059.78;7397721;19;20914;-90
2023/10/17 07:37:55;;;;;;;13.43;9.57;;;;;;;-1.22;100.00;96158.50;7398097;19;20384;-89
2023/10/17 07:43:07;;;;;;;12.07;9.30;;;;;;;-0.29;100.00;96225.09;7398032;19;20377;-89
2023/10/17 07:45:40;;;;;;;13.37;10.50;;;;;;;-0.36;100.00;96190.81;7397359;19;20392;-90
2023/10/17 07:48:25;;;;;;;11.33;9.87;;;;;;;0.01;100.00;96249.56;7396655;19;20409;-89
2023/10/17 07:50:54;;;;;;;14.70;11.27;;;;;;;-0.43;100.00;96172.13;7397845;19;20436;-89
2023/10/17 07:53:22;;;;;;;14.83;10.70;;;;;;;-1.25;100.00;96018.97;7398615;19;20397;-90
2023/10/17 07:56:13;;;;;;;17.80;10.77;;;;;;;-0.38;100.00;96146.94;7397394;19;20389;-90
2023/10/17 07:58:41;;;;;;;11.47;10.27;;;;;;;-1.06;100.00;96041.84;7396036;19;20848;-90
2023/10/17 08:01:14;;;;;;;10.70;9.47;;;;;;;-0.21;100.00;96166.66;7398031;19;20376;-90
2023/10/17 08:03:54;;;;;;;10.17;9.07;;;;;;;-1.31;100.00;95985.53;7397684;19;20391;-89
2023/10/17 08:06:28;;;;;;;14.77;10.13;;;;;;;0.02;100.00;96193.94;7398224;19;20373;-90
2023/10/17 08:08:59;;;;;;;9.83;8.83;;;;;;;-1.30;100.00;95993.06;7396294;19;20393;-89
2023/10/17 08:11:27;;;;;;;10.00;8.83;;;;;;;-0.49;100.00;96109.03;7398066;19;20385;-89
2023/10/17 08:13:55;;;;;;;12.13;8.13;;;;;;;0.49;100.00;96232.56;7398053;19;20392;-89
2023/10/17 08:16:32;;;;;;;8.90;8.00;;;;;;;0.05;100.00;96160.41;7397281;19;20381;-89
2023/10/17 08:24:25;;;;;;;10.80;7.33;;;;;;;0.39;100.00;96139.75;7397582;19;20420;-89
2023/10/17 08:29:48;;;;;;;14.77;9.50;;;;;;;-0.02;100.00;96032.56;7396038;19;20965;-89
2023/10/17 08:34:56;;;;;;;9.50;8.50;;;;;;;0.62;100.00;96078.56;7399030;19;20451;-89
2023/10/17 08:37:30;;;;;;;25.50;8.87;;;;;;;0.80;100.00;96088.34;7396370;19;20375;-90
2023/10/17 08:39:57;;;;;;;9.50;7.30;;;;;;;1.76;100.00;96177.25;7395879;19;20454;-89
2023/10/17 08:42:30;;;;;;;14.00;8.80;;;;;;;1.94;100.00;96166.13;7398479;19;20727;-89
2023/10/17 08:45:04;;;;;;;11.80;8.20;;;;;;;1.10;100.00;96013.72;7398176;19;20360;-91
2023/10/17 08:47:32;;;;;;;15.37;7.20;;;;;;;1.91;100.00;96082.50;7398716;19;20380;-89
2023/10/17 08:50:03;;;;;;;14.43;7.10;;;;;;;2.29;100.00;96130.34;7398121;19;20395;-90
2023/10/17 08:52:35;;;;;;;15.30;9.17;;;;;;;1.85;100.00;96029.63;7397432;19;20393;-89
2023/10/17 08:55:03;;;;;;;7.20;5.60;;;;;;;2.78;100.00;96137.06;7394753;19;20368;-89
2023/10/17 08:57:31;;;;;;;5.47;4.87;;;;;;;3.43;100.00;96174.56;7394112;19;20385;-89
2023/10/17 09:00:14;;;;;;;4.87;4.40;;;;;;;3.74;100.00;96195.81;7395725;19;20385;-89
2023/10/17 09:02:48;;;;;;;5.13;4.50;;;;;;;2.51;100.00;95978.50;7395136;19;20378;-89
2023/10/17 09:05:26;;;;;;;5.90;3.50;;;;;;;3.82;100.00;96163.75;7397133;19;20385;-89
2023/10/17 09:07:57;;;;;;;4.77;3.73;;;;;;;4.20;100.00;96204.75;7394788;19;20424;-90
2023/10/17 09:15:50;;;;;;;4.97;4.57;;;;;;;2.93;100.00;95965.31;7394737;19;20376;-90
2023/10/17 09:18:27;;;;;;;4.90;3.40;;;;;;;4.49;100.00;96207.88;7394834;19;20417;-89
2023/10/17 09:20:56;;;;;;;5.47;3.77;;;;;;;4.44;100.00;96169.50;7395062;19;20353;-90
2023/10/17 09:23:27;;;;;;;5.37;3.03;;;;;;;2.82;100.00;95922.19;7394683;19;20985;-90
2023/10/17 09:25:54;;;;;;;6.60;3.40;;;;;;;5.01;100.00;96245.16;7394154;19;20408;-89
2023/10/17 09:28:25;;;;;;;6.60;3.37;;;;;;;4.40;100.00;96167.72;7393582;19;20420;-89
2023/10/17 09:31:06;;;;;;;3.83;3.53;;;;;;;3.14;100.00;95984.03;7393991;19;20918;-89
2023/10/17 09:33:35;;;;;;;4.27;3.60;;;;;;;4.98;100.00;96243.88;7393948;19;20379;-90
2023/10/17 09:36:04;;;;;;;4.27;3.87;;;;;;;5.04;100.00;96245.31;7393387;19;20444;-89
2023/10/17 09:38:41;;;;;;;4.07;3.67;;;;;;;4.84;100.00;96188.13;7393291;19;20408;-91
2023/10/17 09:41:08;;;;;;;7.23;3.63;;;;;;;4.63;100.00;96121.47;7393899;19;20376;-90
2023/10/17 09:43:49;;;;;;;5.37;4.33;;;;;;;5.04;100.00;96216.50;7393702;19;20388;-89
2023/10/17 09:46:23;;;;;;;5.40;3.47;;;;;;;3.61;100.00;96003.09;7393707;19;20475;-90
2023/10/17 09:48:52;;;;;;;6.37;4.00;;;;;;;4.71;100.00;96184.44;7392571;19;20408;-89
2023/10/17 09:51:22;;;;;;;4.83;4.33;;;;;;;4.55;100.00;96154.38;7392729;19;20922;-90
2023/10/17 09:53:53;;;;;;;5.50;4.20;;;;;;;5.08;100.00;96229.03;7393085;19;20738;-90
2023/10/17 09:56:40;;;;;;;6.60;4.70;;;;;;;4.90;100.00;96189.53;7394633;19;20731;-89
2023/10/17 09:59:16;;;;;;;6.20;4.17;;;;;;;4.86;100.00;96174.72;7392615;19;20412;-90
2023/10/17 10:01:46;;;;;;;4.33;3.93;;;;;;;3.58;100.00;95976.75;7392813;19;20935;-89
2023/10/17 10:04:13;;;;;;;9.10;4.37;;;;;;;3.85;100.00;96024.59;7393197;19;20954;-90
2023/10/17 10:06:40;;;;;;;3.87;3.57;;;;;;;4.60;100.00;96125.47;7397787;19;20480;-90
2023/10/17 10:09:13;;;;;;;4.67;3.37;;;;;;;5.43;100.00;96230.13;7398850;19;20936;-89
2023/10/17 10:11:55;;;;;;;5.10;3.53;;;;;;;5.37;100.00;96219.00;7402232;19;20335;-90
2023/10/17 10:14:21;;;;;;;5.23;4.17;;;;;;;5.51;100.00;96227.59;7404409;19;20372;-90
2023/10/17 10:17:06;;;;;;;4.33;4.03;;;;;;;5.17;100.00;96164.38;7416635;19;20355;-91
2023/10/17 10:19:42;;;;;;;6.00;3.77;;;;;;;5.59;100.00;96215.63;7422015;19;20406;-90
2023/10/17 10:22:14;;;;;;;6.37;4.00;;;;;;;5.73;100.00;96218.19;7416846;19;20380;-90
2023/10/17 10:24:43;;;;;;;6.93;4.27;;;;;;;5.49;100.00;96142.44;7404096;19;20368;-90
2023/10/17 10:27:10;;;;;;;10.20;3.50;;;;;;;5.43;100.00;96169.84;7400698;19;20734;-90
2023/10/17 10:29:40;;;;;;;4.33;3.63;;;;;;;5.40;100.00;96171.22;7398065;19;20428;-90
2023/10/17 10:32:25;;;;;;;4.53;3.83;;;;;;;5.67;100.00;96214.16;7400914;19;20379;-90
2023/10/17 10:34:53;;;;;;;7.47;4.20;;;;;;;5.42;100.00;96155.94;7399921;19;20384;-90
2023/10/17 10:37:21;;;;;;;4.80;4.30;;;;;;;5.61;100.00;96169.69;7398906;19;20385;-90
2023/10/17 10:42:48;;;;;;;9.37;6.30;;;;;;;5.84;100.00;96165.19;7401231;19;20360;-91
2023/10/17 10:45:24;;;;;;;19.60;10.90;;;;;;;6.27;100.00;96190.94;7400181;19;20363;-90
2023/10/17 10:47:59;;;;;;;6.63;4.33;;;;;;;5.93;100.00;96146.91;7399114;19;20376;-90
2023/10/17 10:50:27;;;;;;;8.67;4.93;;;;;;;5.60;100.00;96102.56;7399808;19;20376;-90
2023/10/17 10:52:56;;;;;;;9.93;6.90;;;;;;;5.82;100.00;96138.50;7398768;19;20384;-90
2023/10/17 10:55:26;;;;;;;6.77;4.23;;;;;;;5.42;100.00;96074.69;7399469;19;20389;-90
2023/10/17 10:57:54;;;;;;;6.73;4.10;;;;;;;5.88;100.00;96124.19;7397381;19;20412;-90
2023/10/17 11:00:21;;;;;;;4.83;4.37;;;;;;;6.12;100.00;96154.56;7399554;19;20377;-90
2023/10/17 11:02:48;;;;;;;4.20;3.80;;;;;;;5.38;100.00;96015.31;7398941;19;20389;-90
2023/10/17 11:05:16;;;;;;;5.13;3.80;;;;;;;6.21;100.00;96108.91;7399113;19;20858;-90
2023/10/17 11:07:44;;;;;;;6.10;5.30;;;;;;;6.65;100.00;96174.72;7398777;19;20389;-89
2023/10/17 11:10:13;;;;;;;4.87;4.20;;;;;;;5.86;100.00;96091.44;7398875;19;20360;-90
2023/10/17 11:12:51;;;;;;;3.67;3.33;;;;;;;6.08;100.00;96122.91;7398560;19;20937;-90
2023/10/17 11:15:27;;;;;;;9.30;3.67;;;;;;;6.07;100.00;96096.97;7400087;19;20404;-90
2023/10/17 11:18:06;;;;;;;5.70;3.63;;;;;;;6.02;100.00;96089.25;7394469;19;20409;-90
2023/10/17 11:20:43;;;;;;;4.20;3.80;;;;;;;6.37;100.00;96119.78;7398929;19;20368;-90
2023/10/17 11:23:13;;;;;;;7.23;4.30;;;;;;;6.67;100.00;96162.06;7398080;19;20372;-90
2023/10/17 11:25:45;;;;;;;3.83;3.37;;;;;;;6.77;100.00;96153.91;7398247;19;21001;-90
2023/10/17 11:28:16;;;;;;;6.33;4.17;;;;;;;6.44;100.00;96103.59;7396855;19;20413;-90
2023/10/17 11:30:45;;;;;;;5.87;3.80;;;;;;;5.80;100.00;96033.09;7398545;19;20444;-90
2023/10/17 11:33:28;;;;;;;2.83;2.53;;;;;;;5.36;100.00;95951.91;7398568;19;20396;-90
2023/10/17 11:36:12;;;;;;;4.67;3.53;;;;;;;5.97;100.00;96035.03;7397988;19;20372;-90
2023/10/17 11:38:40;;;;;;;3.43;2.83;;;;;;;5.32;100.00;95896.69;7394780;19;20448;-90
2023/10/17 11:41:15;;;;;;;3.17;2.97;;;;;;;4.90;100.00;95843.81;7397548;19;20412;-90
2023/10/17 11:43:53;;;;;;;4.20;2.97;;;;;;;6.13;100.00;96059.78;7397504;19;20401;-90
2023/10/17 11:46:31;;;;;;;4.13;3.10;;;;;;;6.46;100.00;96117.19;7397950;19;20431;-90
2023/10/17 11:49:35;;;;;;;5.50;3.20;;;;;;;6.53;100.00;96110.41;7395936;19;20400;-90
2023/10/17 11:52:09;;;;;;;3.47;3.20;;;;;;;6.52;100.00;96092.31;7394741;19;20402;-90
2023/10/17 11:55:03;;;;;;;3.80;3.03;;;;;;;6.23;100.00;96067.38;7397456;19;20409;-91
2023/10/17 11:57:31;;;;;;;5.70;4.13;;;;;;;6.43;100.00;96086.31;7396069;19;20376;-90
2023/10/17 11:59:58;;;;;;;4.63;3.23;;;;;;;6.87;100.00;96137.06;7397359;19;20388;-90
2023/10/17 12:02:26;;;;;;;7.10;3.93;;;;;;;6.37;100.00;96077.00;7397479;19;20415;-90
2023/10/17 12:04:53;;;;;;;3.50;3.20;;;;;;;6.29;100.00;96077.75;7396946;19;20376;-90
2023/10/17 12:07:21;;;;;;;3.27;3.00;;;;;;;6.19;100.00;96048.09;7396663;19;20406;-90
2023/10/17 12:09:52;;;;;;;4.30;3.33;;;;;;;6.28;100.00;96058.63;7395309;19;20424;-90
2023/10/17 12:12:19;;;;;;;5.43;3.10;;;;;;;5.60;100.00;95968.03;7396516;19;20362;-90
2023/10/17 12:14:47;;;;;;;4.13;3.83;;;;;;;6.58;100.00;96130.53;7395806;19;20965;-91
2023/10/17 12:17:18;;;;;;;3.87;3.57;;;;;;;6.24;100.00;96078.66;7395157;19;20363;-90
2023/10/17 12:19:46;;;;;;;3.33;3.03;;;;;;;5.79;100.00;95994.81;7394376;19;20397;-91
2023/10/17 12:22:14;;;;;;;3.57;2.90;;;;;;;5.86;100.00;96028.47;7396223;19;20377;-90
2023/10/17 12:24:42;;;;;;;3.57;3.23;;;;;;;5.13;100.00;95907.41;7396195;19;20369;-90
2023/10/17 12:27:12;;;;;;;6.80;3.97;;;;;;;6.32;100.00;96104.19;7396356;19;20377;-90
2023/10/17 12:29:40;;;;;;;6.03;4.27;;;;;;;5.87;100.00;96022.91;7393272;19;20420;-90
2023/10/17 12:32:11;;;;;;;2.90;2.47;;;;;;;5.33;100.00;95935.69;7397029;19;20395;-90
2023/10/17 12:34:41;;;;;;;5.03;3.33;;;;;;;5.52;100.00;95958.31;7396284;19;20380;-90
2023/10/17 12:37:12;;;;;;;4.47;3.10;;;;;;;4.98;100.00;95889.47;7395409;19;20385;-90
2023/10/17 12:39:42;;;;;;;3.87;3.10;;;;;;;6.30;100.00;96092.44;7394367;19;20501;-90
2023/10/17 12:42:11;;;;;;;2.83;2.63;;;;;;;5.60;100.00;95983.78;7395096;19;20436;-91
2023/10/17 12:44:38;;;;;;;3.07;2.77;;;;;;;5.96;100.00;96043.22;7396212;19;20399;-90
2023/10/17 12:47:05;;;;;;;3.47;3.00;;;;;;;5.90;100.00;96017.13;7394855;19;20392;-90
2023/10/17 12:49:33;;;;;;;8.80;3.50;;;;;;;5.77;100.00;96010.09;7393481;19;20408;-90
2023/10/17 12:52:00;;;;;;;4.23;3.53;;;;;;;6.19;100.00;96081.44;7395694;19;20501;-90
2023/10/17 12:54:28;;;;;;;4.63;3.07;;;;;;;5.90;100.00;96025.00;7395379;19;20377;-90
2023/10/17 12:56:55;;;;;;;4.27;3.67;;;;;;;5.28;100.00;95891.28;7396300;19;20385;-90
2023/10/17 12:59:22;;;;;;;5.27;4.67;;;;;;;6.36;100.00;96060.47;7393161;19;20408;-91
2023/10/17 13:01:51;;;;;;;3.40;3.20;;;;;;;6.26;100.00;96031.88;7396159;19;20392;-91
2023/10/17 13:04:20;;;;;;;6.00;4.07;;;;;;;5.96;100.00;95960.03;7394991;19;20377;-90
2023/10/17 13:06:48;;;;;;;4.67;3.13;;;;;;;5.91;100.00;95971.44;7394585;19;20373;-90
2023/10/17 13:09:15;;;;;;;3.13;2.83;;;;;;;6.14;100.00;96015.94;7394125;19;20974;-90
2023/10/17 13:11:42;;;;;;;3.97;2.90;;;;;;;5.76;100.00;95942.19;7394974;19;20724;-90
2023/10/17 13:14:09;;;;;;;4.43;3.20;;;;;;;5.74;100.00;95981.81;7394865;19;20380;-90
2023/10/17 13:16:36;;;;;;;3.43;3.20;;;;;;;4.92;100.00;95873.09;7395538;19;20401;-90
2023/10/17 13:19:07;;;;;;;6.80;3.87;;;;;;;6.28;100.00;96074.38;7393194;19;20420;-90
2023/10/17 13:21:36;;;;;;;3.00;2.67;;;;;;;5.00;100.00;95905.66;7394660;19;20377;-90
2023/10/17 13:24:05;;;;;;;4.90;3.17;;;;;;;4.63;100.00;95842.13;7393884;19;20737;-90
2023/10/17 13:26:32;;;;;;;3.50;3.17;;;;;;;5.60;100.00;95994.25;7394254;19;20391;-90
2023/10/17 13:28:59;;;;;;;4.37;3.93;;;;;;;5.89;100.00;96044.41;7393258;19;20408;-90
2023/10/17 13:31:27;;;;;;;6.90;2.93;;;;;;;5.93;100.00;96050.63;7394471;19;20373;-90
2023/10/17 13:33:55;;;;;;;4.23;3.50;;;;;;;6.37;100.00;96111.91;7394695;19;20371;-91
2023/10/17 13:36:23;;;;;;;5.53;3.10;;;;;;;5.69;100.00;96010.81;7394853;19;20828;-91
2023/10/17 13:38:50;;;;;;;3.80;3.47;;;;;;;6.18;100.00;96038.66;7392977;19;20433;-90
2023/10/17 13:41:17;;;;;;;3.33;3.03;;;;;;;5.87;100.00;95904.88;7392184;19;20452;-90
2023/10/17 13:43:44;;;;;;;6.47;5.73;;;;;;;8.22;100.00;96119.16;7394575;19;20364;-91
2023/10/17 13:46:13;;;;;;;4.53;3.50;;;;;;;9.05;100.00;96063.22;7394448;19;20372;-91
2023/10/17 13:48:48;;;;;;;7.33;3.50;;;;;;;10.01;94.46;96096.31;7393829;19;20421;-90